Campbell Foss — WDC7754 — position and weather

sailwx.info

Track history (hours):
 
Tides and Currents Weather Stations Pressure Air Temp Water Temp Dewpoint Dewpoint Depression Visibility Wind Speed Wind Dir Waves Ship Positions

Campbell Foss

Owner: Foss Maritime Co., Seattle, WA. More information available from US FCC via Universal Licensing System and Coast Guard Vessel Documentation Center.

Last reported at 2014-Oct-31 23:33 UTC. Time now 2014-Oct-31 23:52 UTC.
Position N 33°44' W 118°12'.

Length 23 m; draft 16 m.

Type: Tug. MMSI: 367076360.

Date/timePositionNaut miles runAvg speedWind from/ knotsBaromVisibWave heightAir tempDewpointWater temp
2014-Oct-31 23:33N 33°44' W 118°12'1 0.8
2014-Oct-31 22:33N 33°44' W 118°11'3 2.7
2014-Oct-31 21:33N 33°46' W 118°13'0 0.0
2014-Oct-31 20:33N 33°46' W 118°13'0 0.0
2014-Oct-31 19:33N 33°46' W 118°13'0 0.0
2014-Oct-31 18:33N 33°46' W 118°13'0 0.0
2014-Oct-31 17:33N 33°46' W 118°13'0 0.0
2014-Oct-31 16:33N 33°46' W 118°13'2 1.8
2014-Oct-31 15:33N 33°44' W 118°13'1 0.6
2014-Oct-31 14:33N 33°44' W 118°14'3 3.3
2014-Oct-31 13:32N 33°42' W 118°11'5 4.7
2014-Oct-31 12:33N 33°46' W 118°13'0 0.4
2014-Oct-31 11:33N 33°46' W 118°13'0 0.0
2014-Oct-31 10:33N 33°46' W 118°13'0 0.0
2014-Oct-31 09:33N 33°46' W 118°13'0 0.0
2014-Oct-31 08:33N 33°46' W 118°13'0 0.0
2014-Oct-31 07:33N 33°46' W 118°13'0 0.0
2014-Oct-31 06:33N 33°46' W 118°13'0 0.0
2014-Oct-31 01:25N 33°46' W 118°13'0 0.0
2014-Oct-31 00:33N 33°46' W 118°13'0 0.0
2014-Oct-30 23:33N 33°46' W 118°13'0 0.0
2014-Oct-30 22:33N 33°46' W 118°13'0 0.0
2014-Oct-30 21:33N 33°46' W 118°13'0 0.0
2014-Oct-30 20:33N 33°46' W 118°13'2 2.4
2014-Oct-30 19:33N 33°46' W 118°15'3 2.7
2014-Oct-30 18:33N 33°43' W 118°16'2 2.1
2014-Oct-30 17:33N 33°45' W 118°16'1 1.1
2014-Oct-30 16:33N 33°46' W 118°16'0 0.1
2014-Oct-30 15:33N 33°46' W 118°16'2 2.2
2014-Oct-30 14:33N 33°46' W 118°13'1 1.0
2014-Oct-30 13:33N 33°45' W 118°13'1 1.4
2014-Oct-30 12:33N 33°43' W 118°12'3 3.2
2014-Oct-30 11:33N 33°46' W 118°14'1 0.5
2014-Oct-30 10:33N 33°46' W 118°13'0 0.3
2014-Oct-30 09:33N 33°46' W 118°13'0 0.0
2014-Oct-30 08:33N 33°46' W 118°13'2 2.4
2014-Oct-30 07:33N 33°46' W 118°16'2 2.1
2014-Oct-30 06:33N 33°46' W 118°13'1 0.7
2014-Oct-30 05:33N 33°46' W 118°13'0 0.1
2014-Oct-30 04:33N 33°46' W 118°13'0 0.0
2014-Oct-30 03:33N 33°46' W 118°13'0 0.0
2014-Oct-30 02:33N 33°46' W 118°13'0 0.0
2014-Oct-30 01:33N 33°46' W 118°13'0 0.0
2014-Oct-30 00:33N 33°46' W 118°13'0 0.0
2014-Oct-29 23:33N 33°46' W 118°13'0 0.0
2014-Oct-29 22:33N 33°46' W 118°13'0 0.0
2014-Oct-29 21:33N 33°46' W 118°13'0 0.5
2014-Oct-29 20:33N 33°46' W 118°13'2 2.0
2014-Oct-29 19:33N 33°46' W 118°16'3 2.5
2014-Oct-29 18:32N 33°43' W 118°16'2 1.4
2014-Oct-29 17:25N 33°44' W 118°17'2 1.9
2014-Oct-29 16:33N 33°46' W 118°16'0 0.0
2014-Oct-29 15:33N 33°46' W 118°16'0 0.0
2014-Oct-29 14:32N 33°46' W 118°16'4 3.5
2014-Oct-29 13:27N 33°44' W 118°12'2 2.2
2014-Oct-29 12:33N 33°45' W 118°13'0 0.3
2014-Oct-29 11:34N 33°46' W 118°13'1 0.7
2014-Oct-29 10:32N 33°46' W 118°13'0 0.0
2014-Oct-29 09:32N 33°46' W 118°13'0 0.0
2014-Oct-29 08:32N 33°46' W 118°13'0 0.0
2014-Oct-29 07:32N 33°46' W 118°13'0 0.0
2014-Oct-29 06:32N 33°46' W 118°13'3 2.2
2014-Oct-29 05:18N 33°44' W 118°13'3 3.7
2014-Oct-29 04:33N 33°41' W 118°11'5 5.1
2014-Oct-29 03:32N 33°46' W 118°13'0 0.0
2014-Oct-29 02:32N 33°46' W 118°13'0 0.0
2014-Oct-29 01:32N 33°46' W 118°13'0 0.0
2014-Oct-29 00:32N 33°46' W 118°13'0 0.0
2014-Oct-28 23:29N 33°46' W 118°13'0 0.0
2014-Oct-28 22:32N 33°46' W 118°13'0 0.0
2014-Oct-28 21:32N 33°46' W 118°13'1 0.6
2014-Oct-28 20:34N 33°46' W 118°13'3 2.6
2014-Oct-28 19:34N 33°45' W 118°16'5 1.5
2014-Oct-28 16:22N 33°44' W 118°10'3 3.2
2014-Oct-28 15:34N 33°45' W 118°13'0 0.3
2014-Oct-28 14:29N 33°46' W 118°13'0 0.0
2014-Oct-28 13:32N 33°46' W 118°13'0 0.0
2014-Oct-28 12:32N 33°46' W 118°13'0 0.4
2014-Oct-28 11:32N 33°46' W 118°13'1 0.5
2014-Oct-28 10:32N 33°46' W 118°13'0 0.0
2014-Oct-28 09:32N 33°46' W 118°13'0 0.0
2014-Oct-28 08:32N 33°46' W 118°13'0 0.0
2014-Oct-28 07:32N 33°46' W 118°13'0 0.0
2014-Oct-28 06:32N 33°46' W 118°13'0 0.0
2014-Oct-28 05:29N 33°46' W 118°13'0 0.0
2014-Oct-28 04:33N 33°46' W 118°13'0 0.0
2014-Oct-28 03:34N 33°46' W 118°13'3 2.6
2014-Oct-28 02:33N 33°46' W 118°16'3 1.3
2014-Oct-28 00:32N 33°43' W 118°16'2 1.9
2014-Oct-27 23:30N 33°43' W 118°14'1 1.1
2014-Oct-27 22:31N 33°44' W 118°14'0 0.0
2014-Oct-27 21:33N 33°44' W 118°14'2 2.1
2014-Oct-27 20:33N 33°46' W 118°13'0 0.0
2014-Oct-27 19:33N 33°46' W 118°13'0 0.0
2014-Oct-27 18:33N 33°46' W 118°13'0 0.0
2014-Oct-27 17:33N 33°46' W 118°13'1 0.7
2014-Oct-27 16:33N 33°46' W 118°13'0 0.0
2014-Oct-27 15:33N 33°46' W 118°13'0 0.4
2014-Oct-27 14:33N 33°45' W 118°13'2 1.6
2014-Oct-27 13:33N 33°44' W 118°13'2 1.7
2014-Oct-27 12:33N 33°45' W 118°14'1 1.4
2014-Oct-27 11:33N 33°44' W 118°13'2 2.0
2014-Oct-27 10:33N 33°46' W 118°13'1 0.6
2014-Oct-27 09:33N 33°46' W 118°13'0 0.0
2014-Oct-27 08:33N 33°46' W 118°13'0 0.0
2014-Oct-27 07:33N 33°46' W 118°13'0 0.0
2014-Oct-27 06:33N 33°46' W 118°13'0 0.0
2014-Oct-27 05:33N 33°46' W 118°13'0 0.0
2014-Oct-27 04:33N 33°46' W 118°13'0 0.0
2014-Oct-27 03:33N 33°46' W 118°13'0 0.0
2014-Oct-27 02:33N 33°46' W 118°13'0 0.0
2014-Oct-27 01:33N 33°46' W 118°13'0 0.0
2014-Oct-27 00:33N 33°46' W 118°13'0 0.0
2014-Oct-26 23:33N 33°46' W 118°13'0 0.2
2014-Oct-26 22:33N 33°46' W 118°13'3 2.6
2014-Oct-26 21:33N 33°45' W 118°16'5 4.3
2014-Oct-26 20:29N 33°44' W 118°11'4 2.3
2014-Oct-26 18:33N 33°46' W 118°15'0 0.0
2014-Oct-26 17:33N 33°46' W 118°15'0 0.0
2014-Oct-26 16:33N 33°46' W 118°15'0 0.0
2014-Oct-26 15:33N 33°46' W 118°15'0 0.2
2014-Oct-26 14:33N 33°46' W 118°16'0 0.1
2014-Oct-26 13:33N 33°46' W 118°16'3 2.5
2014-Oct-26 12:33N 33°46' W 118°13'0 0.0
2014-Oct-26 11:33N 33°46' W 118°13'0 0.0
2014-Oct-26 10:33N 33°46' W 118°13'0 0.0
2014-Oct-26 09:33N 33°46' W 118°13'0 0.0
2014-Oct-26 08:33N 33°46' W 118°13'0 0.0
2014-Oct-26 07:30N 33°46' W 118°13'0 0.0
2014-Oct-26 06:33N 33°46' W 118°13'0 0.0
2014-Oct-26 05:33N 33°46' W 118°13'0 0.0
2014-Oct-26 04:33N 33°46' W 118°13'0 0.0
2014-Oct-26 03:33N 33°46' W 118°13'0 0.0
2014-Oct-26 02:33N 33°46' W 118°13'0 0.0
2014-Oct-26 01:33N 33°46' W 118°13'0 0.0
2014-Oct-26 00:33N 33°46' W 118°13'0 0.0
2014-Oct-25 23:33N 33°46' W 118°13'0 0.0
2014-Oct-25 22:33N 33°46' W 118°13'0 0.0
2014-Oct-25 21:33N 33°46' W 118°13'0 0.0
2014-Oct-25 20:33N 33°46' W 118°13'1 1.4
2014-Oct-25 19:33N 33°45' W 118°13'1 1.4
2014-Oct-25 18:33N 33°46' W 118°13'0 0.0
2014-Oct-25 17:33N 33°46' W 118°13'0 0.0
2014-Oct-25 16:33N 33°46' W 118°13'0 0.0
2014-Oct-25 15:33N 33°46' W 118°13'0 0.0
2014-Oct-25 14:33N 33°46' W 118°13'0 0.0
2014-Oct-25 13:33N 33°46' W 118°13'1 1.0
2014-Oct-25 12:33N 33°46' W 118°14'3 3.2
2014-Oct-25 11:33N 33°44' W 118°12'3 2.8
2014-Oct-25 10:33N 33°46' W 118°13'0 0.0
2014-Oct-25 09:33N 33°46' W 118°13'0 0.0
2014-Oct-25 08:33N 33°46' W 118°13'0 0.0
2014-Oct-25 07:33N 33°46' W 118°13'0 0.0
2014-Oct-25 06:33N 33°46' W 118°13'0 0.0
2014-Oct-25 05:33N 33°46' W 118°13'1 0.7
2014-Oct-25 04:33N 33°46' W 118°13'0 0.0
2014-Oct-25 03:33N 33°46' W 118°13'0 0.0
2014-Oct-25 02:33N 33°46' W 118°13'2 2.0
2014-Oct-25 01:33N 33°46' W 118°16'2 1.5
2014-Oct-25 00:33N 33°45' W 118°17'4 3.8
2014-Oct-24 23:33N 33°42' W 118°13'1 1.4
2014-Oct-24 22:33N 33°43' W 118°12'1 0.7
2014-Oct-24 21:33N 33°43' W 118°11'1 0.8
2014-Oct-24 20:33N 33°42' W 118°11'4 4.2
2014-Oct-24 19:33N 33°46' W 118°13'1 0.8
2014-Oct-24 18:33N 33°45' W 118°14'1 0.8
2014-Oct-24 17:33N 33°46' W 118°13'1 0.8
2014-Oct-24 16:34N 33°46' W 118°14'1 1.5
2014-Oct-24 15:34N 33°46' W 118°16'2 1.8
2014-Oct-24 14:33N 33°44' W 118°17'4 4.3
2014-Oct-24 13:33N 33°44' W 118°11'0 0.0
2014-Oct-24 12:33N 33°44' W 118°11'0 0.0
2014-Oct-24 11:34N 33°44' W 118°11'4 4.1
2014-Oct-24 10:33N 33°45' W 118°16'1 0.8
2014-Oct-24 09:33N 33°46' W 118°16'3 2.9
2014-Oct-24 08:34N 33°43' W 118°15'3 3.2
2014-Oct-24 07:34N 33°46' W 118°13'0 0.2
2014-Oct-24 06:34N 33°46' W 118°13'0 0.0
2014-Oct-24 05:34N 33°46' W 118°13'0 0.0
2014-Oct-24 04:33N 33°46' W 118°13'0 0.0
2014-Oct-24 03:34N 33°46' W 118°13'3 2.6
2014-Oct-24 02:34N 33°44' W 118°11'2 2.2
2014-Oct-24 01:34N 33°44' W 118°14'0 0.0
2014-Oct-24 00:34N 33°44' W 118°14'0 0.0
2014-Oct-23 23:34N 33°44' W 118°14'0 0.0
2014-Oct-23 22:34N 33°44' W 118°14'2 2.2
2014-Oct-23 21:34N 33°46' W 118°16'1 0.7
2014-Oct-23 20:34N 33°45' W 118°16'2 2.5
2014-Oct-23 19:34N 33°46' W 118°13'1 1.5
2014-Oct-23 18:34N 33°44' W 118°14'0 0.0
2014-Oct-23 17:34N 33°44' W 118°14'1 1.5
2014-Oct-23 16:34N 33°46' W 118°13'0 0.4
2014-Oct-23 15:34N 33°46' W 118°13'2 2.0
2014-Oct-23 14:34N 33°46' W 118°16'0 0.0
2014-Oct-23 13:33N 33°46' W 118°16'1 1.3
2014-Oct-23 12:33N 33°45' W 118°16'1 1.0
2014-Oct-23 11:33N 33°45' W 118°16'0 0.4
2014-Oct-23 10:34N 33°46' W 118°16'0 0.0
2014-Oct-23 09:29N 33°46' W 118°16'0 0.0
2014-Oct-23 08:33N 33°46' W 118°16'3 3.0
2014-Oct-23 07:33N 33°44' W 118°13'3 2.7
2014-Oct-23 06:34N 33°46' W 118°13'0 0.0
2014-Oct-23 05:33N 33°46' W 118°13'1 0.7
2014-Oct-23 04:34N 33°46' W 118°13'0 0.0
2014-Oct-23 03:34N 33°46' W 118°13'1 1.4
2014-Oct-23 02:33N 33°44' W 118°13'0 0.3
2014-Oct-23 01:34N 33°44' W 118°12'2 1.9
2014-Oct-23 00:33N 33°46' W 118°13'0 0.0
2014-Oct-22 23:33N 33°46' W 118°13'0 0.0
2014-Oct-22 22:33N 33°46' W 118°13'0 0.5
2014-Oct-22 21:34N 33°46' W 118°13'1 1.0
2014-Oct-22 20:33N 33°45' W 118°13'1 0.8
2014-Oct-22 19:34N 33°45' W 118°12'2 0.5
2014-Oct-22 16:22N 33°43' W 118°13'2 2.3
2014-Oct-22 15:34N 33°45' W 118°13'0 0.4
2014-Oct-22 14:33N 33°46' W 118°13'0 0.0
2014-Oct-22 13:34N 33°46' W 118°13'0 0.3
2014-Oct-22 12:33N 33°45' W 118°13'1 0.8
2014-Oct-22 11:33N 33°46' W 118°13'0 0.0
2014-Oct-22 10:34N 33°46' W 118°13'1 0.7
2014-Oct-22 09:33N 33°46' W 118°13'1 0.8
2014-Oct-22 08:27N 33°45' W 118°13'2 1.8
2014-Oct-22 07:33N 33°46' W 118°13'0 0.0
2014-Oct-22 06:34N 33°46' W 118°13'0 0.1
2014-Oct-22 05:33N 33°46' W 118°13'2 1.2
2014-Oct-22 03:33N 33°46' W 118°16'6 4.4
2014-Oct-22 02:09N 33°42' W 118°21'8 8.3
2014-Oct-22 01:08N 33°49' W 118°27'5 9.0
2014-Oct-22 00:34N 33°54' W 118°27'0 0.2
2014-Oct-21 23:33N 33°54' W 118°27'  
Track history (hours):
 
Tides and Currents Weather Stations Pressure Air Temp Water Temp Dewpoint Dewpoint Depression Visibility Wind Speed Wind Dir Waves Ship Positions

Campbell Foss

Owner: Foss Maritime Co., Seattle, WA. More information available from US FCC via Universal Licensing System and Coast Guard Vessel Documentation Center.

Last reported at 2014-Oct-31 23:33 UTC. Time now 2014-Oct-31 23:52 UTC.
Position N 33°44' W 118°12'.

Length 23 m; draft 16 m.

Type: Tug. MMSI: 367076360.

Date/timePositionNaut miles runAvg speedWind from/ knotsBaromVisibWave heightAir tempDewpointWater temp
2014-Oct-31 23:33N 33°44' W 118°12'1 0.8
2014-Oct-31 22:33N 33°44' W 118°11'3 2.7
2014-Oct-31 21:33N 33°46' W 118°13'0 0.0
2014-Oct-31 20:33N 33°46' W 118°13'0 0.0
2014-Oct-31 19:33N 33°46' W 118°13'0 0.0
2014-Oct-31 18:33N 33°46' W 118°13'0 0.0
2014-Oct-31 17:33N 33°46' W 118°13'0 0.0
2014-Oct-31 16:33N 33°46' W 118°13'2 1.8
2014-Oct-31 15:33N 33°44' W 118°13'1 0.6
2014-Oct-31 14:33N 33°44' W 118°14'3 3.3
2014-Oct-31 13:32N 33°42' W 118°11'5 4.7
2014-Oct-31 12:33N 33°46' W 118°13'0 0.4
2014-Oct-31 11:33N 33°46' W 118°13'0 0.0
2014-Oct-31 10:33N 33°46' W 118°13'0 0.0
2014-Oct-31 09:33N 33°46' W 118°13'0 0.0
2014-Oct-31 08:33N 33°46' W 118°13'0 0.0
2014-Oct-31 07:33N 33°46' W 118°13'0 0.0
2014-Oct-31 06:33N 33°46' W 118°13'0 0.0
2014-Oct-31 01:25N 33°46' W 118°13'0 0.0
2014-Oct-31 00:33N 33°46' W 118°13'0 0.0
2014-Oct-30 23:33N 33°46' W 118°13'0 0.0
2014-Oct-30 22:33N 33°46' W 118°13'0 0.0
2014-Oct-30 21:33N 33°46' W 118°13'0 0.0
2014-Oct-30 20:33N 33°46' W 118°13'2 2.4
2014-Oct-30 19:33N 33°46' W 118°15'3 2.7
2014-Oct-30 18:33N 33°43' W 118°16'2 2.1
2014-Oct-30 17:33N 33°45' W 118°16'1 1.1
2014-Oct-30 16:33N 33°46' W 118°16'0 0.1
2014-Oct-30 15:33N 33°46' W 118°16'2 2.2
2014-Oct-30 14:33N 33°46' W 118°13'1 1.0
2014-Oct-30 13:33N 33°45' W 118°13'1 1.4
2014-Oct-30 12:33N 33°43' W 118°12'3 3.2
2014-Oct-30 11:33N 33°46' W 118°14'1 0.5
2014-Oct-30 10:33N 33°46' W 118°13'0 0.3
2014-Oct-30 09:33N 33°46' W 118°13'0 0.0
2014-Oct-30 08:33N 33°46' W 118°13'2 2.4
2014-Oct-30 07:33N 33°46' W 118°16'2 2.1
2014-Oct-30 06:33N 33°46' W 118°13'1 0.7
2014-Oct-30 05:33N 33°46' W 118°13'0 0.1
2014-Oct-30 04:33N 33°46' W 118°13'0 0.0
2014-Oct-30 03:33N 33°46' W 118°13'0 0.0
2014-Oct-30 02:33N 33°46' W 118°13'0 0.0
2014-Oct-30 01:33N 33°46' W 118°13'0 0.0
2014-Oct-30 00:33N 33°46' W 118°13'0 0.0
2014-Oct-29 23:33N 33°46' W 118°13'0 0.0
2014-Oct-29 22:33N 33°46' W 118°13'0 0.0
2014-Oct-29 21:33N 33°46' W 118°13'0 0.5
2014-Oct-29 20:33N 33°46' W 118°13'2 2.0
2014-Oct-29 19:33N 33°46' W 118°16'3 2.5
2014-Oct-29 18:32N 33°43' W 118°16'2 1.4
2014-Oct-29 17:25N 33°44' W 118°17'2 1.9
2014-Oct-29 16:33N 33°46' W 118°16'0 0.0
2014-Oct-29 15:33N 33°46' W 118°16'0 0.0
2014-Oct-29 14:32N 33°46' W 118°16'4 3.5
2014-Oct-29 13:27N 33°44' W 118°12'2 2.2
2014-Oct-29 12:33N 33°45' W 118°13'0 0.3
2014-Oct-29 11:34N 33°46' W 118°13'1 0.7
2014-Oct-29 10:32N 33°46' W 118°13'0 0.0
2014-Oct-29 09:32N 33°46' W 118°13'0 0.0
2014-Oct-29 08:32N 33°46' W 118°13'0 0.0
2014-Oct-29 07:32N 33°46' W 118°13'0 0.0
2014-Oct-29 06:32N 33°46' W 118°13'3 2.2
2014-Oct-29 05:18N 33°44' W 118°13'3 3.7
2014-Oct-29 04:33N 33°41' W 118°11'5 5.1
2014-Oct-29 03:32N 33°46' W 118°13'0 0.0
2014-Oct-29 02:32N 33°46' W 118°13'0 0.0
2014-Oct-29 01:32N 33°46' W 118°13'0 0.0
2014-Oct-29 00:32N 33°46' W 118°13'0 0.0
2014-Oct-28 23:29N 33°46' W 118°13'0 0.0
2014-Oct-28 22:32N 33°46' W 118°13'0 0.0
2014-Oct-28 21:32N 33°46' W 118°13'1 0.6
2014-Oct-28 20:34N 33°46' W 118°13'3 2.6
2014-Oct-28 19:34N 33°45' W 118°16'5 1.5
2014-Oct-28 16:22N 33°44' W 118°10'3 3.2
2014-Oct-28 15:34N 33°45' W 118°13'0 0.3
2014-Oct-28 14:29N 33°46' W 118°13'0 0.0
2014-Oct-28 13:32N 33°46' W 118°13'0 0.0
2014-Oct-28 12:32N 33°46' W 118°13'0 0.4
2014-Oct-28 11:32N 33°46' W 118°13'1 0.5
2014-Oct-28 10:32N 33°46' W 118°13'0 0.0
2014-Oct-28 09:32N 33°46' W 118°13'0 0.0
2014-Oct-28 08:32N 33°46' W 118°13'0 0.0
2014-Oct-28 07:32N 33°46' W 118°13'0 0.0
2014-Oct-28 06:32N 33°46' W 118°13'0 0.0
2014-Oct-28 05:29N 33°46' W 118°13'0 0.0
2014-Oct-28 04:33N 33°46' W 118°13'0 0.0
2014-Oct-28 03:34N 33°46' W 118°13'3 2.6
2014-Oct-28 02:33N 33°46' W 118°16'3 1.3
2014-Oct-28 00:32N 33°43' W 118°16'2 1.9
2014-Oct-27 23:30N 33°43' W 118°14'1 1.1
2014-Oct-27 22:31N 33°44' W 118°14'0 0.0
2014-Oct-27 21:33N 33°44' W 118°14'2 2.1
2014-Oct-27 20:33N 33°46' W 118°13'0 0.0
2014-Oct-27 19:33N 33°46' W 118°13'0 0.0
2014-Oct-27 18:33N 33°46' W 118°13'0 0.0
2014-Oct-27 17:33N 33°46' W 118°13'1 0.7
2014-Oct-27 16:33N 33°46' W 118°13'0 0.0
2014-Oct-27 15:33N 33°46' W 118°13'0 0.4
2014-Oct-27 14:33N 33°45' W 118°13'2 1.6
2014-Oct-27 13:33N 33°44' W 118°13'2 1.7
2014-Oct-27 12:33N 33°45' W 118°14'1 1.4
2014-Oct-27 11:33N 33°44' W 118°13'2 2.0
2014-Oct-27 10:33N 33°46' W 118°13'1 0.6
2014-Oct-27 09:33N 33°46' W 118°13'0 0.0
2014-Oct-27 08:33N 33°46' W 118°13'0 0.0
2014-Oct-27 07:33N 33°46' W 118°13'0 0.0
2014-Oct-27 06:33N 33°46' W 118°13'0 0.0
2014-Oct-27 05:33N 33°46' W 118°13'0 0.0
2014-Oct-27 04:33N 33°46' W 118°13'0 0.0
2014-Oct-27 03:33N 33°46' W 118°13'0 0.0
2014-Oct-27 02:33N 33°46' W 118°13'0 0.0
2014-Oct-27 01:33N 33°46' W 118°13'0 0.0
2014-Oct-27 00:33N 33°46' W 118°13'0 0.0
2014-Oct-26 23:33N 33°46' W 118°13'0 0.2
2014-Oct-26 22:33N 33°46' W 118°13'3 2.6
2014-Oct-26 21:33N 33°45' W 118°16'5 4.3
2014-Oct-26 20:29N 33°44' W 118°11'4 2.3
2014-Oct-26 18:33N 33°46' W 118°15'0 0.0
2014-Oct-26 17:33N 33°46' W 118°15'0 0.0
2014-Oct-26 16:33N 33°46' W 118°15'0 0.0
2014-Oct-26 15:33N 33°46' W 118°15'0 0.2
2014-Oct-26 14:33N 33°46' W 118°16'0 0.1
2014-Oct-26 13:33N 33°46' W 118°16'3 2.5
2014-Oct-26 12:33N 33°46' W 118°13'0 0.0
2014-Oct-26 11:33N 33°46' W 118°13'0 0.0
2014-Oct-26 10:33N 33°46' W 118°13'0 0.0
2014-Oct-26 09:33N 33°46' W 118°13'0 0.0
2014-Oct-26 08:33N 33°46' W 118°13'0 0.0
2014-Oct-26 07:30N 33°46' W 118°13'0 0.0
2014-Oct-26 06:33N 33°46' W 118°13'0 0.0
2014-Oct-26 05:33N 33°46' W 118°13'0 0.0
2014-Oct-26 04:33N 33°46' W 118°13'0 0.0
2014-Oct-26 03:33N 33°46' W 118°13'0 0.0
2014-Oct-26 02:33N 33°46' W 118°13'0 0.0
2014-Oct-26 01:33N 33°46' W 118°13'0 0.0
2014-Oct-26 00:33N 33°46' W 118°13'0 0.0
2014-Oct-25 23:33N 33°46' W 118°13'0 0.0
2014-Oct-25 22:33N 33°46' W 118°13'0 0.0
2014-Oct-25 21:33N 33°46' W 118°13'0 0.0
2014-Oct-25 20:33N 33°46' W 118°13'1 1.4
2014-Oct-25 19:33N 33°45' W 118°13'1 1.4
2014-Oct-25 18:33N 33°46' W 118°13'0 0.0
2014-Oct-25 17:33N 33°46' W 118°13'0 0.0
2014-Oct-25 16:33N 33°46' W 118°13'0 0.0
2014-Oct-25 15:33N 33°46' W 118°13'0 0.0
2014-Oct-25 14:33N 33°46' W 118°13'0 0.0
2014-Oct-25 13:33N 33°46' W 118°13'1 1.0
2014-Oct-25 12:33N 33°46' W 118°14'3 3.2
2014-Oct-25 11:33N 33°44' W 118°12'3 2.8
2014-Oct-25 10:33N 33°46' W 118°13'0 0.0
2014-Oct-25 09:33N 33°46' W 118°13'0 0.0
2014-Oct-25 08:33N 33°46' W 118°13'0 0.0
2014-Oct-25 07:33N 33°46' W 118°13'0 0.0
2014-Oct-25 06:33N 33°46' W 118°13'0 0.0
2014-Oct-25 05:33N 33°46' W 118°13'1 0.7
2014-Oct-25 04:33N 33°46' W 118°13'0 0.0
2014-Oct-25 03:33N 33°46' W 118°13'0 0.0
2014-Oct-25 02:33N 33°46' W 118°13'2 2.0
2014-Oct-25 01:33N 33°46' W 118°16'2 1.5
2014-Oct-25 00:33N 33°45' W 118°17'4 3.8
2014-Oct-24 23:33N 33°42' W 118°13'1 1.4
2014-Oct-24 22:33N 33°43' W 118°12'1 0.7
2014-Oct-24 21:33N 33°43' W 118°11'1 0.8
2014-Oct-24 20:33N 33°42' W 118°11'4 4.2
2014-Oct-24 19:33N 33°46' W 118°13'1 0.8
2014-Oct-24 18:33N 33°45' W 118°14'1 0.8
2014-Oct-24 17:33N 33°46' W 118°13'1 0.8
2014-Oct-24 16:34N 33°46' W 118°14'1 1.5
2014-Oct-24 15:34N 33°46' W 118°16'2 1.8
2014-Oct-24 14:33N 33°44' W 118°17'4 4.3
2014-Oct-24 13:33N 33°44' W 118°11'0 0.0
2014-Oct-24 12:33N 33°44' W 118°11'0 0.0
2014-Oct-24 11:34N 33°44' W 118°11'4 4.1
2014-Oct-24 10:33N 33°45' W 118°16'1 0.8
2014-Oct-24 09:33N 33°46' W 118°16'3 2.9
2014-Oct-24 08:34N 33°43' W 118°15'3 3.2
2014-Oct-24 07:34N 33°46' W 118°13'0 0.2
2014-Oct-24 06:34N 33°46' W 118°13'0 0.0
2014-Oct-24 05:34N 33°46' W 118°13'0 0.0
2014-Oct-24 04:33N 33°46' W 118°13'0 0.0
2014-Oct-24 03:34N 33°46' W 118°13'3 2.6
2014-Oct-24 02:34N 33°44' W 118°11'2 2.2
2014-Oct-24 01:34N 33°44' W 118°14'0 0.0
2014-Oct-24 00:34N 33°44' W 118°14'0 0.0
2014-Oct-23 23:34N 33°44' W 118°14'0 0.0
2014-Oct-23 22:34N 33°44' W 118°14'2 2.2
2014-Oct-23 21:34N 33°46' W 118°16'1 0.7
2014-Oct-23 20:34N 33°45' W 118°16'2 2.5
2014-Oct-23 19:34N 33°46' W 118°13'1 1.5
2014-Oct-23 18:34N 33°44' W 118°14'0 0.0
2014-Oct-23 17:34N 33°44' W 118°14'1 1.5
2014-Oct-23 16:34N 33°46' W 118°13'0 0.4
2014-Oct-23 15:34N 33°46' W 118°13'2 2.0
2014-Oct-23 14:34N 33°46' W 118°16'0 0.0
2014-Oct-23 13:33N 33°46' W 118°16'1 1.3
2014-Oct-23 12:33N 33°45' W 118°16'1 1.0
2014-Oct-23 11:33N 33°45' W 118°16'0 0.4
2014-Oct-23 10:34N 33°46' W 118°16'0 0.0
2014-Oct-23 09:29N 33°46' W 118°16'0 0.0
2014-Oct-23 08:33N 33°46' W 118°16'3 3.0
2014-Oct-23 07:33N 33°44' W 118°13'3 2.7
2014-Oct-23 06:34N 33°46' W 118°13'0 0.0
2014-Oct-23 05:33N 33°46' W 118°13'1 0.7
2014-Oct-23 04:34N 33°46' W 118°13'0 0.0
2014-Oct-23 03:34N 33°46' W 118°13'1 1.4
2014-Oct-23 02:33N 33°44' W 118°13'0 0.3
2014-Oct-23 01:34N 33°44' W 118°12'2 1.9
2014-Oct-23 00:33N 33°46' W 118°13'0 0.0
2014-Oct-22 23:33N 33°46' W 118°13'0 0.0
2014-Oct-22 22:33N 33°46' W 118°13'0 0.5
2014-Oct-22 21:34N 33°46' W 118°13'1 1.0
2014-Oct-22 20:33N 33°45' W 118°13'1 0.8
2014-Oct-22 19:34N 33°45' W 118°12'2 0.5
2014-Oct-22 16:22N 33°43' W 118°13'2 2.3
2014-Oct-22 15:34N 33°45' W 118°13'0 0.4
2014-Oct-22 14:33N 33°46' W 118°13'0 0.0
2014-Oct-22 13:34N 33°46' W 118°13'0 0.3
2014-Oct-22 12:33N 33°45' W 118°13'1 0.8
2014-Oct-22 11:33N 33°46' W 118°13'0 0.0
2014-Oct-22 10:34N 33°46' W 118°13'1 0.7
2014-Oct-22 09:33N 33°46' W 118°13'1 0.8
2014-Oct-22 08:27N 33°45' W 118°13'2 1.8
2014-Oct-22 07:33N 33°46' W 118°13'0 0.0
2014-Oct-22 06:34N 33°46' W 118°13'0 0.1
2014-Oct-22 05:33N 33°46' W 118°13'2 1.2
2014-Oct-22 03:33N 33°46' W 118°16'6 4.4
2014-Oct-22 02:09N 33°42' W 118°21'8 8.3
2014-Oct-22 01:08N 33°49' W 118°27'5 9.0
2014-Oct-22 00:34N 33°54' W 118°27'0 0.2
2014-Oct-21 23:33N 33°54' W 118°27'  

Dump ship's entire track history